createdAt,value
2023-05-14T00:09:45.912Z,0
2023-05-14T00:15:03.279Z,0
2023-05-14T00:20:27.649Z,0
2023-05-14T00:25:45.465Z,0
2023-05-14T00:31:10.009Z,0
2023-05-14T00:36:27.308Z,0
2023-05-14T00:47:06.183Z,0
2023-05-14T00:52:23.806Z,0
2023-05-14T00:57:41.090Z,0
2023-05-14T01:02:58.380Z,0
2023-05-14T01:08:15.649Z,0
2023-05-14T01:13:32.966Z,0
2023-05-14T01:18:50.340Z,0
2023-05-14T01:24:07.781Z,0
2023-05-14T01:29:24.992Z,0
2023-05-14T01:34:42.218Z,0
2023-05-14T01:39:59.772Z,0
2023-05-14T01:45:16.996Z,0
2023-05-14T01:50:34.151Z,0
2023-05-14T01:55:51.457Z,0
2023-05-14T02:01:08.897Z,0
2023-05-14T02:06:26.102Z,0
2023-05-14T02:11:43.475Z,0
2023-05-14T02:17:00.683Z,0
2023-05-14T02:22:17.909Z,0
2023-05-14T02:27:35.082Z,0
2023-05-14T02:32:52.333Z,0
2023-05-14T02:38:09.739Z,0
2023-05-14T02:43:27.001Z,0
2023-05-14T02:48:44.325Z,0
2023-05-14T02:54:01.661Z,0
2023-05-14T02:59:18.826Z,0
2023-05-14T03:04:36.567Z,0
2023-05-14T03:09:53.750Z,0
2023-05-14T03:15:11.066Z,0
2023-05-14T03:20:28.354Z,0
2023-05-14T03:25:45.620Z,0
2023-05-14T03:31:02.761Z,17.9
2023-05-14T03:36:22.502Z,36.2
2023-05-14T03:41:39.339Z,66.7
2023-05-14T03:46:56.342Z,111.7
2023-05-14T03:52:14.175Z,177.1
2023-05-14T03:57:31.103Z,272.9
2023-05-14T04:02:59.430Z,374.2
2023-05-14T04:08:16.660Z,490
2023-05-14T04:13:33.613Z,615.8
2023-05-14T04:18:50.761Z,757.1
2023-05-14T04:24:15.372Z,890.4
2023-05-14T04:29:32.515Z,1048.7
2023-05-14T04:34:49.378Z,1196.2
2023-05-14T04:40:23.699Z,1343.3
2023-05-14T04:45:41.239Z,1499.6
2023-05-14T04:51:07.066Z,1622.5
2023-05-14T04:56:24.474Z,1788.3
2023-05-14T05:01:41.624Z,1959.2
2023-05-14T05:06:58.713Z,2062.1
2023-05-14T05:12:15.767Z,2122.9
2023-05-14T05:17:32.648Z,2183.8
2023-05-14T05:22:49.770Z,2197.5
2023-05-14T05:28:07.668Z,2127.1
2023-05-14T05:33:24.680Z,2415
2023-05-14T05:38:47.869Z,2649.6
2023-05-14T05:44:05.069Z,2640.8
2023-05-14T05:49:21.979Z,2863.3
2023-05-14T05:54:39.358Z,3040
2023-05-14T05:59:56.516Z,3255
2023-05-14T06:05:13.850Z,3367.1
2023-05-14T06:10:35.433Z,3593.3
2023-05-14T06:15:52.764Z,3735.4
2023-05-14T06:21:15.770Z,3796.7
2023-05-14T06:26:33.120Z,3922.1
2023-05-14T06:31:49.990Z,4184.2
2023-05-14T06:37:06.844Z,4359.2
2023-05-14T06:42:23.858Z,4543.3
2023-05-14T06:47:41.106Z,9954.2
2023-05-14T06:52:58.405Z,4913.3
2023-05-14T06:58:15.649Z,5329.2
2023-05-14T07:03:32.650Z,6355
2023-05-14T07:08:49.922Z,11081.2
2023-05-14T07:14:07.320Z,10269.2
2023-05-14T07:19:24.460Z,13734.2
2023-05-14T07:24:41.420Z,12010
2023-05-14T07:29:58.629Z,11440
2023-05-14T07:35:15.960Z,13224.6
2023-05-14T07:40:33.113Z,17327.5
2023-05-14T07:45:50.356Z,13341.7
2023-05-14T07:51:10.101Z,12634.2
2023-05-14T07:56:27.275Z,13605.8
2023-05-14T08:01:44.712Z,13633.8
2023-05-14T08:07:01.988Z,11896.7
2023-05-14T08:12:19.207Z,9892.5
2023-05-14T08:18:13.699Z,11361.2
2023-05-14T08:23:31.080Z,18988.7
2023-05-14T08:28:48.584Z,10544.2
2023-05-14T08:34:05.719Z,10111.7
2023-05-14T08:39:23.104Z,10064.2
2023-05-14T08:44:57.778Z,10377.1
2023-05-14T08:50:15.091Z,11210.8
2023-05-14T08:55:39.843Z,13132.1
2023-05-14T09:00:57.359Z,12819.6
2023-05-14T09:06:14.041Z,12193.7
2023-05-14T09:11:31.926Z,12709.6
2023-05-14T10:05:56.834Z,51250.5
2023-05-14T10:11:14.460Z,55131.7
2023-05-14T10:22:10.952Z,52953.9
2023-05-14T10:27:28.506Z,52928.8
2023-05-14T10:32:53.064Z,54089.5
2023-05-14T10:38:10.747Z,54154.2
2023-05-14T10:43:27.923Z,55271.9
2023-05-14T10:48:45.128Z,55433.6
2023-05-14T10:54:02.464Z,51336.7
2023-05-14T10:59:36.895Z,52824.5
2023-05-14T11:04:54.689Z,58657.2
2023-05-14T11:10:19.662Z,54283.6
2023-05-14T11:15:36.927Z,49272.5
2023-05-14T11:20:55.400Z,56129
2023-05-14T11:26:13.007Z,60554.7
2023-05-14T11:31:30.442Z,58526
2023-05-14T11:36:47.850Z,55958.3
2023-05-14T11:42:05.221Z,57244.8
2023-05-14T11:47:22.277Z,54014.1
2023-05-14T11:52:39.550Z,56499.1
2023-05-14T11:57:56.090Z,20804.6
2023-05-14T12:03:11.444Z,54037.4
2023-05-14T12:08:29.514Z,53740.9
2023-05-14T12:13:47.263Z,53625.9
2023-05-14T12:19:04.275Z,51908.1
2023-05-14T12:24:21.394Z,53033
2023-05-14T12:29:38.321Z,49111.7
2023-05-14T12:34:55.131Z,50183.1
2023-05-14T12:40:11.956Z,49740.8
2023-05-14T12:45:28.309Z,47264.2
2023-05-14T12:50:45.025Z,46017.5
2023-05-14T12:56:02.116Z,48841.7
2023-05-14T13:01:18.735Z,40328.3
2023-05-14T13:06:35.980Z,47911.7
2023-05-14T13:11:53.871Z,24978.3
2023-05-14T13:17:39.337Z,40545.8
2023-05-14T13:22:57.205Z,14610.8
2023-05-14T13:28:12.441Z,9895.8
2023-05-14T13:33:28.161Z,11435.8
2023-05-14T13:38:47.539Z,14467.9
2023-05-14T13:44:05.166Z,21992.9
2023-05-14T13:49:23.949Z,34922.5
2023-05-14T13:54:43.636Z,40282.5
2023-05-14T14:00:01.147Z,19348.3
2023-05-14T14:05:16.735Z,25117.1
2023-05-14T14:10:31.978Z,10181.2
2023-05-14T14:21:11.163Z,9324.6
2023-05-14T14:26:27.095Z,10322.5
2023-05-14T14:31:43.634Z,10955
2023-05-14T14:37:01.494Z,20916.2
2023-05-14T14:47:40.999Z,21226.7
2023-05-14T14:53:04.293Z,19549.6
2023-05-14T14:58:21.647Z,11447.1
2023-05-14T15:03:41.115Z,15936.7
2023-05-14T15:08:57.757Z,8803.7
2023-05-14T15:14:31.573Z,7326.7
2023-05-14T15:19:47.868Z,7062.9
2023-05-14T15:25:04.601Z,8019.2
2023-05-14T15:30:21.421Z,9125
2023-05-14T15:35:46.109Z,10317.1
2023-05-14T15:41:03.402Z,11467.9
2023-05-14T15:46:20.780Z,11257.9
2023-05-14T15:51:37.888Z,11352.1
2023-05-14T15:56:57.494Z,10975
2023-05-14T16:02:14.563Z,10526.2
2023-05-14T16:07:31.478Z,9737.9
2023-05-14T16:12:48.456Z,9249.2
2023-05-14T16:18:05.277Z,8685.8
2023-05-14T16:23:22.218Z,8488.3
2023-05-14T16:28:39.117Z,7981.7
2023-05-14T16:33:58.600Z,7593.7
2023-05-14T16:39:15.964Z,7511.3
2023-05-14T16:44:38.499Z,7067.5
2023-05-14T16:49:55.530Z,6758.3
2023-05-14T16:55:12.683Z,6550
2023-05-14T17:00:29.795Z,5912.1
2023-05-14T17:05:46.407Z,5886.3
2023-05-14T17:11:03.472Z,5708.8
2023-05-14T17:16:20.538Z,5569.2
2023-05-14T17:21:46.871Z,5262.1
2023-05-14T17:27:04.044Z,4700
2023-05-14T17:32:20.951Z,4150.8
2023-05-14T17:37:37.808Z,3742.1
2023-05-14T17:43:39.680Z,3329.6
2023-05-14T17:48:56.852Z,3018.3
2023-05-14T17:54:13.695Z,2725.4
2023-05-14T17:59:30.448Z,2359.6
2023-05-14T18:04:47.194Z,2109.2
2023-05-14T18:10:04.235Z,1925
2023-05-14T18:15:20.943Z,1615
2023-05-14T18:20:40.876Z,1319.2
2023-05-14T18:25:57.755Z,1097.5
2023-05-14T18:31:22.041Z,953.8
2023-05-14T18:36:39.244Z,875.8
2023-05-14T18:41:55.933Z,785.8
2023-05-14T18:47:12.774Z,615.4
2023-05-14T18:52:29.544Z,461.3
2023-05-14T18:57:46.652Z,338.7
2023-05-14T19:03:03.523Z,242.1
2023-05-14T19:08:27.985Z,162.9
2023-05-14T19:13:44.942Z,106.7
2023-05-14T19:19:01.923Z,68.7
2023-05-14T19:24:19.160Z,40.8
2023-05-14T19:29:35.976Z,21.7
2023-05-14T19:34:53.428Z,0.5
2023-05-14T19:40:10.798Z,5.3
2023-05-14T19:45:33.566Z,2.4
2023-05-14T19:50:51.275Z,0.9
2023-05-14T19:56:08.561Z,0.3
2023-05-14T20:01:26.074Z,0
2023-05-14T20:06:43.196Z,0
2023-05-14T20:12:00.528Z,0
2023-05-14T20:18:03.439Z,0
2023-05-14T20:23:30.203Z,0
2023-05-14T20:28:47.329Z,0
2023-05-14T20:34:04.438Z,0
2023-05-14T20:39:21.814Z,0
2023-05-14T20:44:38.870Z,0
2023-05-14T20:49:56.206Z,0
2023-05-14T20:55:13.645Z,0
2023-05-14T21:05:54.574Z,0
2023-05-14T21:11:11.775Z,0
2023-05-14T21:21:51.902Z,0
2023-05-14T21:27:09.166Z,0
2023-05-14T21:32:46.762Z,0
2023-05-14T21:38:04.343Z,0
2023-05-14T21:43:24.276Z,0
2023-05-14T21:48:41.552Z,0
2023-05-14T21:53:59.146Z,0
2023-05-14T21:59:16.512Z,0
2023-05-14T22:04:33.797Z,0
2023-05-14T22:09:52.243Z,0
2023-05-14T22:15:10.103Z,0
2023-05-14T22:20:27.364Z,0
2023-05-14T22:25:44.694Z,0
2023-05-14T22:31:01.929Z,0
2023-05-14T22:36:28.977Z,0
2023-05-14T22:41:46.502Z,0
2023-05-14T22:47:03.853Z,0
2023-05-14T22:52:21.082Z,0
2023-05-14T22:57:38.384Z,0
2023-05-14T23:02:55.810Z,0
2023-05-14T23:08:20.575Z,0
2023-05-14T23:13:37.996Z,0
2023-05-14T23:18:55.736Z,0
2023-05-14T23:24:13.260Z,0
2023-05-14T23:29:30.480Z,0
2023-05-14T23:34:59.827Z,0
2023-05-14T23:40:17.393Z,0
2023-05-14T23:45:37.780Z,0
2023-05-14T23:50:55.453Z,0
2023-05-14T23:56:12.811Z,0
